Lucama, North Carolina
Current Conditions -  °F | °C
As of 5:15 PM on Thursday 23 Oct 2014 (Local Time) from KGWW Reporting Station
Clear Clear  
Wind Chill: 67°   Ceiling: Unl
Heat Index: 67°   Visibility: 10mi
Dew Point: 46°   Wind: 7mph
Humidity: 47%   Direction: 310°NW
Pressure: 29.91"   Gusts: NA
Location:  35.65°N, 78.01°W
Report Text: KGWW 232115Z AUTO 31006KT 10SM CLR 20/08 A2991 RMK AO2 T01960080
Loading
Personal Weather Stations






























Interactive Weather Map
Tropical Storm Tracking
New forecast layout! Learn more

10-Day Weather Forecast

Advertisements
Track Severe Weather on mobile